Time;durP1;ratioP1;P1;durP2;ratioP2;P2;SDS_P1;SDS_P2;PMS_P1;PMS_P2;Temp;Humidity;BMP_temperature;BMP_pressure;BME280_temperature;BME280_humidity;BME280_pressure;Samples;Min_cycle;Max_cycle;Signal;HPM_P1;HPM_P2
2022/04/07 00:01:10;;;;;;;;;;;;;;;8.72;87.02;95131.19;4883869;29;19965;-78
2022/04/07 00:03:36;;;;;;;;;;;;;;;8.74;86.79;95122.06;4885572;29;20381;-78
2022/04/07 00:06:07;;;;;;;;;;;;;;;8.78;86.66;95118.97;4894602;29;20356;-76
2022/04/07 00:08:33;;;;;;;;;;;;;;;8.78;86.75;95109.31;4888301;29;20416;-78
2022/04/07 00:10:59;;;;;;;;;;;;;;;8.80;86.26;95117.72;4890582;29;20025;-77
2022/04/07 00:13:25;;;;;;;;;;;;;;;8.80;86.38;95109.88;4885901;29;20021;-78
2022/04/07 00:15:53;;;;;;;;;;;;;;;8.80;86.80;95107.25;4887137;29;20367;-78
2022/04/07 00:18:19;;;;;;;;;;;;;;;8.78;86.61;95098.84;4888932;29;19959;-77
2022/04/07 00:20:45;;;;;;;;;;;;;;;8.80;86.31;95109.06;4889823;29;20016;-78
2022/04/07 00:23:11;;;;;;;;;;;;;;;8.79;87.38;95099.66;4891968;29;19968;-77
2022/04/07 00:25:37;;;;;;;;;;;;;;;8.77;85.48;95089.41;4885597;29;20016;-77
2022/04/07 00:28:03;;;;;;;;;;;;;;;8.77;85.49;95092.03;4887765;29;20439;-77
2022/04/07 00:30:30;;;;;;;;;;;;;;;8.77;85.42;95092.03;4888338;29;19962;-77
2022/04/07 00:32:56;;;;;;;;;;;;;;;8.76;85.34;95087.84;4891094;29;19962;-78
2022/04/07 00:35:26;;;;;;;;;;;;;;;8.73;85.87;95085.69;4889258;29;20017;-78
2022/04/07 00:37:52;;;;;;;;;;;;;;;8.66;85.68;95083.25;4893497;29;19971;-78
2022/04/07 00:40:18;;;;;;;;;;;;;;;8.60;85.57;95073.75;4888108;29;19976;-78
2022/04/07 00:42:47;;;;;;;;;;;;;;;8.57;85.53;95076.88;4883819;29;19962;-77
2022/04/07 00:45:14;;;;;;;;;;;;;;;8.57;85.35;95081.28;4887276;29;19974;-77
2022/04/07 00:47:40;;;;;;;;;;;;;;;8.57;85.59;95083.88;4894494;29;19974;-78
2022/04/07 00:50:06;;;;;;;;;;;;;;;8.57;85.55;95081.28;4892913;29;20348;-79
2022/04/07 00:52:32;;;;;;;;;;;;;;;8.57;85.65;95065.59;4884458;29;19956;-77
2022/04/07 00:54:59;;;;;;;;;;;;;;;8.58;85.44;95069.81;4892832;29;20328;-77
2022/04/07 00:57:25;;;;;;;;;;;;;;;8.57;85.71;95069.03;4887847;29;19969;-78
2022/04/07 00:59:51;;;;;;;;;;;;;;;8.58;85.75;95073.19;4892242;29;20343;-78
2022/04/07 01:02:17;;;;;;;;;;;;;;;8.59;85.46;95069.56;4890838;29;20343;-77
2022/04/07 01:04:43;;;;;;;;;;;;;;;8.59;85.83;95060.91;4891214;29;19980;-75
2022/04/07 01:07:09;;;;;;;;;;;;;;;8.59;86.25;95060.91;4891306;29;19992;-77
2022/04/07 01:09:36;;;;;;;;;;;;;;;8.57;85.95;95052.53;4893949;29;19970;-81
2022/04/07 01:12:03;;;;;;;;;;;;;;;8.56;85.74;95058.81;4891481;29;19959;-79
2022/04/07 01:14:29;;;;;;;;;;;;;;;8.54;87.23;95056.41;4892799;29;19958;-78
2022/04/07 01:16:55;;;;;;;;;;;;;;;8.43;87.19;95047.63;4896425;29;19962;-78
2022/04/07 01:19:21;;;;;;;;;;;;;;;8.31;87.27;95039.84;4896770;29;19979;-77
2022/04/07 01:21:47;;;;;;;;;;;;;;;8.27;87.13;95030.94;4889710;29;19952;-78
2022/04/07 01:24:13;;;;;;;;;;;;;;;8.27;87.49;95051.00;4892515;29;19973;-78
2022/04/07 01:26:43;;;;;;;;;;;;;;;8.24;87.03;95051.50;4891660;29;19970;-78
2022/04/07 01:29:10;;;;;;;;;;;;;;;8.16;87.20;95041.44;4887563;29;19958;-78
2022/04/07 01:31:37;;;;;;;;;;;;;;;8.11;86.66;95040.34;4887569;29;19984;-78
2022/04/07 01:34:05;;;;;;;;;;;;;;;8.10;86.12;95037.94;4883987;29;19961;-78
2022/04/07 01:36:33;;;;;;;;;;;;;;;8.06;86.14;95045.47;4887426;29;19977;-78
2022/04/07 01:39:01;;;;;;;;;;;;;;;8.05;87.40;95040.50;4890846;29;20433;-77
2022/04/07 01:41:27;;;;;;;;;;;;;;;7.99;86.68;95034.38;4891310;29;19969;-78
2022/04/07 01:43:55;;;;;;;;;;;;;;;7.96;87.95;95034.06;4896679;29;19962;-78
2022/04/07 01:46:21;;;;;;;;;;;;;;;7.90;86.45;95027.97;4892171;29;19958;-75
2022/04/07 01:48:47;;;;;;;;;;;;;;;7.85;87.22;95035.72;4886283;29;19974;-76
2022/04/07 01:51:14;;;;;;;;;;;;;;;7.80;88.85;95044.25;4893862;29;20447;-78
2022/04/07 01:53:41;;;;;;;;;;;;;;;7.77;87.97;95036.09;4897579;29;20396;-77
2022/04/07 01:56:07;;;;;;;;;;;;;;;7.75;89.04;95038.13;4895878;29;19957;-76
2022/04/07 01:58:34;;;;;;;;;;;;;;;7.69;89.77;95032.84;4889982;29;19980;-75
2022/04/07 02:01:00;;;;;;;;;;;;;;;7.68;89.15;95035.69;4891185;29;20334;-76
2022/04/07 02:03:26;;;;;;;;;;;;;;;7.67;89.41;95021.84;4896142;29;19971;-75
2022/04/07 02:05:52;;;;;;;;;;;;;;;7.67;88.61;95023.66;4882091;29;19988;-77
2022/04/07 02:08:17;;;;;;;;;;;;;;;7.66;88.39;95019.47;4880017;29;20051;-76
2022/04/07 02:10:43;;;;;;;;;;;;;;;7.65;89.00;95023.91;4892011;29;20037;-76
2022/04/07 02:13:09;;;;;;;;;;;;;;;7.64;87.67;95018.91;4886439;29;20051;-76
2022/04/07 02:15:35;;;;;;;;;;;;;;;7.63;87.34;95019.94;4873029;29;20393;-76
2022/04/07 02:18:02;;;;;;;;;;;;;;;7.65;87.14;95020.50;4892675;29;20042;-75
2022/04/07 02:20:27;;;;;;;;;;;;;;;7.63;85.99;94999.84;4881653;29;19958;-78
2022/04/07 02:22:53;;;;;;;;;;;;;;;7.64;85.58;95005.84;4883728;29;20490;-77
2022/04/07 02:25:23;;;;;;;;;;;;;;;7.64;85.37;95011.06;4870937;29;20002;-78
2022/04/07 02:27:48;;;;;;;;;;;;;;;7.62;84.60;95006.13;4890228;29;20302;-77
2022/04/07 02:30:14;;;;;;;;;;;;;;;7.64;85.18;95009.28;4890298;29;19968;-78
2022/04/07 02:32:43;;;;;;;;;;;;;;;7.64;84.43;95008.47;4875885;29;19965;-81
2022/04/07 02:35:11;;;;;;;;;;;;;;;7.63;84.98;95001.69;4884668;29;19969;-77
2022/04/07 02:37:37;;;;;;;;;;;;;;;7.62;85.26;95011.34;4890145;29;19967;-77
2022/04/07 02:40:03;;;;;;;;;;;;;;;7.60;83.85;95005.56;4891101;29;20503;-78
2022/04/07 02:42:29;;;;;;;;;;;;;;;7.60;84.24;95004.75;4889974;29;20031;-76
2022/04/07 02:44:55;;;;;;;;;;;;;;;7.60;84.31;95002.94;4887033;29;20004;-78
2022/04/07 02:47:20;;;;;;;;;;;;;;;7.58;84.19;95005.00;4897865;29;19972;-78
2022/04/07 02:49:46;;;;;;;;;;;;;;;7.58;83.22;95001.56;4885764;29;19962;-77
2022/04/07 02:52:12;;;;;;;;;;;;;;;7.60;83.56;95002.13;4892662;29;19966;-77
2022/04/07 02:54:38;;;;;;;;;;;;;;;7.59;82.76;94996.13;4889226;29;19999;-76
2022/04/07 02:57:04;;;;;;;;;;;;;;;7.60;82.89;94991.69;4892944;29;20042;-77
2022/04/07 02:59:31;;;;;;;;;;;;;;;7.60;83.42;94995.13;4887701;29;19958;-77
2022/04/07 03:01:58;;;;;;;;;;;;;;;7.58;83.53;94991.97;4885862;29;19967;-77
2022/04/07 03:04:24;;;;;;;;;;;;;;;7.58;83.25;94989.34;4891449;29;20317;-76
2022/04/07 03:06:51;;;;;;;;;;;;;;;7.58;83.41;94991.97;4889131;29;19982;-76
2022/04/07 03:09:20;;;;;;;;;;;;;;;7.59;83.16;94987.53;4892438;29;19971;-78
2022/04/07 03:11:49;;;;;;;;;;;;;;;7.59;83.10;94988.31;4886350;29;19960;-78
2022/04/07 03:14:15;;;;;;;;;;;;;;;7.58;82.89;94984.13;4890437;29;20022;-78
2022/04/07 03:16:41;;;;;;;;;;;;;;;7.59;83.43;94987.53;4890044;29;20021;-79
2022/04/07 03:19:07;;;;;;;;;;;;;;;7.59;83.13;94987.53;4891287;29;19961;-77
2022/04/07 03:21:33;;;;;;;;;;;;;;;7.60;83.98;94983.88;4891893;29;19958;-78
2022/04/07 03:23:59;;;;;;;;;;;;;;;7.60;82.85;94983.88;4892377;29;20033;-78
2022/04/07 03:26:25;;;;;;;;;;;;;;;7.63;83.38;94983.41;4888249;29;19957;-77
2022/04/07 03:28:51;;;;;;;;;;;;;;;7.62;83.03;94969.59;4888638;29;19963;-78
2022/04/07 03:31:17;;;;;;;;;;;;;;;7.62;82.70;94964.38;4877406;29;19972;-78
2022/04/07 03:33:44;;;;;;;;;;;;;;;7.63;83.62;94968.56;4886561;29;19997;-78
2022/04/07 03:36:10;;;;;;;;;;;;;;;7.65;83.51;94973.53;4884791;29;19968;-78
2022/04/07 03:38:37;;;;;;;;;;;;;;;7.65;83.39;94963.88;4890126;29;19967;-78
2022/04/07 03:41:05;;;;;;;;;;;;;;;7.65;83.53;94960.50;4890104;29;19966;-79
2022/04/07 03:43:32;;;;;;;;;;;;;;;7.66;83.42;94967.28;4888685;29;19973;-78
2022/04/07 03:45:58;;;;;;;;;;;;;;;7.67;83.13;94961.06;4893020;29;19975;-78
2022/04/07 03:48:24;;;;;;;;;;;;;;;7.66;83.62;94962.84;4884138;29;19988;-78
2022/04/07 03:50:50;;;;;;;;;;;;;;;7.67;82.77;94959.22;4889878;29;19961;-78
2022/04/07 03:53:16;;;;;;;;;;;;;;;7.67;83.36;94954.00;4889322;29;19961;-79
2022/04/07 03:55:42;;;;;;;;;;;;;;;7.67;82.97;94963.66;4874441;29;19962;-78
2022/04/07 03:58:08;;;;;;;;;;;;;;;7.68;82.65;94952.19;4887264;29;19958;-78
2022/04/07 04:00:34;;;;;;;;;;;;;;;7.69;82.10;94954.56;4888210;29;19986;-78
2022/04/07 04:03:00;;;;;;;;;;;;;;;7.70;82.32;94948.31;4889442;29;19967;-78
2022/04/07 04:05:28;;;;;;;;;;;;;;;7.71;82.65;94951.72;4889445;29;19992;-78
2022/04/07 04:08:00;;;;;;;;;;;;;;;7.73;82.39;94947.84;4877297;29;19961;-78
2022/04/07 04:10:26;;;;;;;;;;;;;;;7.72;82.66;94938.44;4883701;29;20011;-78
2022/04/07 04:12:51;;;;;;;;;;;;;;;7.70;83.29;94935.25;4889143;29;19958;-79
2022/04/07 04:15:18;;;;;;;;;;;;;;;7.69;82.79;94927.69;4887291;29;19970;-78
2022/04/07 04:17:43;;;;;;;;;;;;;;;7.68;83.14;94924.28;4893806;29;19963;-78
2022/04/07 04:20:10;;;;;;;;;;;;;;;7.68;82.37;94919.06;4889028;29;20017;-78
2022/04/07 04:22:36;;;;;;;;;;;;;;;7.70;82.20;94921.44;4889206;29;20355;-78
2022/04/07 04:25:02;;;;;;;;;;;;;;;7.70;81.89;94914.38;4885834;29;20448;-79
2022/04/07 04:27:28;;;;;;;;;;;;;;;7.72;81.97;94908.94;4896885;29;19955;-76
2022/04/07 04:29:54;;;;;;;;;;;;;;;7.71;81.93;94900.34;4893270;29;20013;-76
2022/04/07 04:32:20;;;;;;;;;;;;;;;7.73;81.59;94910.53;4891828;29;20006;-77
2022/04/07 04:34:46;;;;;;;;;;;;;;;7.74;81.73;94906.88;4889704;29;20055;-77
2022/04/07 04:37:12;;;;;;;;;;;;;;;7.74;81.27;94909.50;4889725;29;19969;-76
2022/04/07 04:39:38;;;;;;;;;;;;;;;7.77;80.83;94900.41;4897340;29;19956;-77
2022/04/07 04:42:21;;;;;;;;;;;;;;;7.77;81.03;94893.38;4893139;29;20334;-77
2022/04/07 04:44:47;;;;;;;;;;;;;;;7.79;81.17;94906.16;4888519;29;20021;-76
2022/04/07 04:47:13;;;;;;;;;;;;;;;7.79;80.86;94909.59;4886292;29;19959;-76
2022/04/07 04:49:40;;;;;;;;;;;;;;;7.78;80.07;94888.94;4895582;29;20012;-76
2022/04/07 04:52:06;;;;;;;;;;;;;;;7.80;79.99;94879.84;4895928;29;19961;-77
2022/04/07 04:54:32;;;;;;;;;;;;;;;7.82;79.63;94877.00;4890355;29;19958;-77
2022/04/07 04:56:58;;;;;;;;;;;;;;;7.83;79.80;94881.19;4888688;29;19967;-76
2022/04/07 04:59:24;;;;;;;;;;;;;;;7.85;80.33;94866.88;4889422;29;20016;-76
2022/04/07 05:01:50;;;;;;;;;;;;;;;7.84;80.59;94864.50;4898045;29;20007;-77
2022/04/07 05:04:16;;;;;;;;;;;;;;;7.83;80.59;94863.72;4891686;29;20424;-77
2022/04/07 05:06:41;;;;;;;;;;;;;;;7.85;80.26;94871.28;4885715;29;19989;-76
2022/04/07 05:09:07;;;;;;;;;;;;;;;7.85;80.23;94873.91;4891989;29;20059;-76
2022/04/07 05:11:34;;;;;;;;;;;;;;;7.85;80.83;94859.06;4895299;29;20001;-77
2022/04/07 05:14:00;;;;;;;;;;;;;;;7.85;80.22;94859.06;4891382;29;19974;-76
2022/04/07 05:16:26;;;;;;;;;;;;;;;7.87;79.96;94870.06;4889930;29;19964;-77
2022/04/07 05:18:52;;;;;;;;;;;;;;;7.87;79.14;94843.94;4887457;29;19962;-77
2022/04/07 05:21:18;;;;;;;;;;;;;;;7.92;79.74;94848.44;4897373;29;19978;-76
2022/04/07 05:23:44;;;;;;;;;;;;;;;7.92;79.83;94862.28;4888620;29;20422;-77
2022/04/07 05:26:12;;;;;;;;;;;;;;;7.92;80.84;94851.06;4888313;29;19986;-79
2022/04/07 05:28:42;;;;;;;;;;;;;;;7.91;80.24;94855.47;4894842;29;20329;-77
2022/04/07 05:31:08;;;;;;;;;;;;;;;7.89;80.68;94844.47;4883099;29;19966;-77
2022/04/07 05:33:34;;;;;;;;;;;;;;;7.91;80.42;94845.03;4893796;29;19958;-77
2022/04/07 05:36:00;;;;;;;;;;;;;;;7.92;80.76;94848.44;4892419;29;19986;-77
2022/04/07 05:38:26;;;;;;;;;;;;;;;7.92;81.38;94845.84;4888387;29;19963;-77
2022/04/07 05:40:52;;;;;;;;;;;;;;;7.92;81.27;94844.00;4900248;29;20082;-78
2022/04/07 05:43:18;;;;;;;;;;;;;;;7.94;80.00;94849.00;4895302;29;20020;-76
2022/04/07 05:45:45;;;;;;;;;;;;;;;7.96;80.03;94841.72;4887289;29;20071;-76
2022/04/07 05:48:12;;;;;;;;;;;;;;;7.99;80.22;94851.66;4891146;29;19962;-78
2022/04/07 05:50:38;;;;;;;;;;;;;;;8.03;80.12;94849.38;4892427;29;19965;-76
2022/04/07 05:53:16;;;;;;;;;;;;;;;8.06;79.17;94836.63;4890773;29;19962;-75
2022/04/07 05:55:42;;;;;;;;;;;;;;;8.12;79.17;94827.03;4886191;29;19972;-75
2022/04/07 05:58:08;;;;;;;;;;;;;;;8.13;78.97;94812.97;4888478;29;19966;-75
2022/04/07 06:00:36;;;;;;;;;;;;;;;8.16;78.24;94802.00;4894045;29;19967;-75
2022/04/07 06:03:02;;;;;;;;;;;;;;;8.18;78.45;94818.22;4864718;29;20414;-75
2022/04/07 06:05:28;;;;;;;;;;;;;;;8.22;78.19;94813.31;4890238;29;20045;-76
2022/04/07 06:08:00;;;;;;;;;;;;;;;8.25;78.09;94802.38;4890005;29;19965;-75
2022/04/07 06:10:26;;;;;;;;;;;;;;;8.29;77.93;94790.41;4889808;29;19988;-75
2022/04/07 06:12:52;;;;;;;;;;;;;;;8.32;77.68;94782.88;4892097;29;20411;-75
2022/04/07 06:15:18;;;;;;;;;;;;;;;8.37;77.31;94776.16;4894202;29;19964;-75
2022/04/07 06:17:44;;;;;;;;;;;;;;;8.41;76.67;94780.66;4887071;29;19963;-75
2022/04/07 06:20:11;;;;;;;;;;;;;;;8.46;76.56;94788.56;4869884;29;19965;-76
2022/04/07 06:22:41;;;;;;;;;;;;;;;8.47;76.00;94784.91;4889641;29;20351;-76
2022/04/07 06:25:07;;;;;;;;;;;;;;;8.50;79.11;94794.88;4883852;29;19978;-79
2022/04/07 06:27:37;;;;;;;;;;;;;;;8.56;75.98;94782.63;4894892;29;19965;-75
2022/04/07 06:30:04;;;;;;;;;;;;;;;8.55;75.87;94783.69;4893514;29;19962;-78
2022/04/07 06:32:30;;;;;;;;;;;;;;;8.52;75.63;94771.09;4886332;29;19962;-75
2022/04/07 06:34:56;;;;;;;;;;;;;;;8.51;75.88;94782.59;4882949;29;19966;-75
2022/04/07 06:37:22;;;;;;;;;;;;;;;8.51;75.56;94777.38;4888828;29;20352;-75
2022/04/07 06:39:48;;;;;;;;;;;;;;;8.50;75.37;94767.94;4888148;29;19962;-77
2022/04/07 06:42:13;;;;;;;;;;;;;;;8.51;75.82;94772.16;4891276;29;19970;-75
2022/04/07 06:44:39;;;;;;;;;;;;;;;8.53;75.55;94777.91;4896019;29;20037;-76
2022/04/07 06:47:05;;;;;;;;;;;;;;;8.53;74.79;94765.63;4874228;29;19978;-76
2022/04/07 06:49:31;;;;;;;;;;;;;;;8.56;75.47;94771.41;4893710;29;19963;-76
2022/04/07 06:51:57;;;;;;;;;;;;;;;8.56;74.77;94764.34;4885608;29;19985;-75
2022/04/07 06:54:23;;;;;;;;;;;;;;;8.59;75.21;94765.69;4889091;29;19965;-76
2022/04/07 06:56:48;;;;;;;;;;;;;;;8.62;75.82;94781.66;4894281;29;20005;-75
2022/04/07 06:59:14;;;;;;;;;;;;;;;8.65;75.19;94775.16;4890089;29;19969;-75
2022/04/07 07:02:13;;;;;;;;;;;;;;;8.67;75.14;94771.28;4843108;29;19970;-75
2022/04/07 07:04:38;;;;;;;;;;;;;;;8.68;74.78;94759.78;4851820;29;20424;-75
2022/04/07 07:07:05;;;;;;;;;;;;;;;8.72;75.08;94766.09;4855200;29;19990;-76
2022/04/07 07:09:31;;;;;;;;;;;;;;;8.80;75.45;94749.19;4845661;29;19969;-76
2022/04/07 07:11:57;;;;;;;;;;;;;;;8.90;75.96;94740.63;4849055;29;20033;-77
2022/04/07 07:14:23;;;;;;;;;;;;;;;9.00;75.53;94732.84;4850993;29;20031;-76
2022/04/07 07:16:48;;;;;;;;;;;;;;;9.09;75.50;94744.44;4848357;29;20029;-77
2022/04/07 07:19:16;;;;;;;;;;;;;;;9.17;74.64;94721.47;4852773;29;19960;-77
2022/04/07 07:21:42;;;;;;;;;;;;;;;9.22;74.79;94714.47;4852337;29;19987;-77
2022/04/07 07:24:08;;;;;;;;;;;;;;;9.24;73.97;94701.94;4855606;29;20016;-76
2022/04/07 07:26:33;;;;;;;;;;;;;;;9.27;74.17;94701.41;4887296;29;20025;-77
2022/04/07 07:29:00;;;;;;;;;;;;;;;9.30;74.22;94711.38;4888450;29;19974;-77
2022/04/07 07:31:26;;;;;;;;;;;;;;;9.35;73.70;94700.94;4890367;29;19967;-76
2022/04/07 07:33:52;;;;;;;;;;;;;;;9.41;73.74;94696.53;4898531;29;20046;-74
2022/04/07 07:36:32;;;;;;;;;;;;;;;9.43;73.39;94696.25;4882374;29;19971;-77
2022/04/07 07:38:57;;;;;;;;;;;;;;;9.45;72.78;94696.78;4875867;29;19961;-76
2022/04/07 07:41:23;;;;;;;;;;;;;;;9.46;72.50;94682.69;4891802;29;19964;-77
2022/04/07 07:43:50;;;;;;;;;;;;;;;9.50;73.26;94697.63;4889514;29;20004;-76
2022/04/07 07:46:16;;;;;;;;;;;;;;;9.53;72.06;94696.31;4888573;29;20427;-77
2022/04/07 07:48:42;;;;;;;;;;;;;;;9.53;72.11;94694.50;4891102;29;19970;-76
2022/04/07 07:51:08;;;;;;;;;;;;;;;9.52;72.22;94706.00;4891711;29;20006;-76
2022/04/07 07:53:34;;;;;;;;;;;;;;;9.46;72.03;94696.56;4888986;29;19966;-76
2022/04/07 07:56:00;;;;;;;;;;;;;;;9.46;72.56;94688.69;4889835;29;19961;-76
2022/04/07 07:58:26;;;;;;;;;;;;;;;9.47;73.29;94677.22;4891144;29;19973;-75
2022/04/07 08:00:52;;;;;;;;;;;;;;;9.50;73.32;94687.16;4887812;29;19953;-76
2022/04/07 08:03:18;;;;;;;;;;;;;;;9.53;72.11;94667.53;4886889;29;19973;-75
2022/04/07 08:05:44;;;;;;;;;;;;;;;9.58;71.76;94666.78;4890688;29;20025;-76
2022/04/07 08:08:11;;;;;;;;;;;;;;;9.64;71.66;94655.28;4893213;29;19975;-76
2022/04/07 08:10:42;;;;;;;;;;;;;;;9.71;70.75;94648.78;4864051;29;19967;-76
2022/04/07 08:13:08;;;;;;;;;;;;;;;9.79;70.47;94629.19;4892230;29;19962;-76
2022/04/07 08:15:34;;;;;;;;;;;;;;;9.89;70.70;94636.25;4893700;29;19981;-75
2022/04/07 08:18:23;;;;;;;;;;;;;;;9.97;69.98;94617.44;4850675;29;20063;-76
2022/04/07 08:20:49;;;;;;;;;;;;;;;10.06;69.88;94629.00;4884423;29;20012;-76
2022/04/07 08:23:15;;;;;;;;;;;;;;;10.10;69.64;94618.75;4885345;29;20024;-77
2022/04/07 08:25:41;;;;;;;;;;;;;;;10.10;68.41;94613.53;4891075;29;19980;-76
2022/04/07 08:28:07;;;;;;;;;;;;;;;10.11;69.21;94602.03;4862607;29;20000;-75
2022/04/07 08:30:34;;;;;;;;;;;;;;;10.09;69.35;94617.22;4891610;29;20028;-75
2022/04/07 08:33:00;;;;;;;;;;;;;;;10.08;68.89;94598.09;4890669;29;19964;-75
2022/04/07 08:35:26;;;;;;;;;;;;;;;10.07;68.78;94603.59;4883504;29;19960;-75
2022/04/07 08:37:52;;;;;;;;;;;;;;;10.09;69.37;94599.66;4894471;29;20008;-76
2022/04/07 08:40:45;;;;;;;;;;;;;;;10.19;67.96;94598.13;4866973;29;19969;-75
2022/04/07 08:43:11;;;;;;;;;;;;;;;10.24;67.75;94585.00;4878199;29;19967;-76
2022/04/07 08:45:37;;;;;;;;;;;;;;;10.28;67.02;94572.97;4891235;29;19979;-75
2022/04/07 08:48:05;;;;;;;;;;;;;;;10.34;66.88;94566.72;4880227;29;20413;-77
2022/04/07 08:50:33;;;;;;;;;;;;;;;10.37;66.80;94563.56;4897705;29;19958;-76
2022/04/07 08:53:22;;;;;;;;;;;;;;;10.41;66.53;94556.75;4858310;29;19968;-75
2022/04/07 08:55:47;;;;;;;;;;;;;;;10.45;67.17;94578.75;4888423;29;20367;-75
2022/04/07 08:58:17;;;;;;;;;;;;;;;10.48;66.41;94561.75;4887121;29;19984;-77
2022/04/07 09:00:44;;;;;;;;;;;;;;;10.49;64.97;94537.88;4886723;29;19958;-76
2022/04/07 09:03:10;;;;;;;;;;;;;;;10.49;66.00;94553.59;4890000;29;19965;-76
2022/04/07 09:05:50;;;;;;;;;;;;;;;10.52;66.74;94557.50;4879889;29;19996;-75
2022/04/07 09:08:18;;;;;;;;;;;;;;;10.56;67.41;94553.31;4890874;29;20342;-78
2022/04/07 09:10:52;;;;;;;;;;;;;;;10.68;66.21;94555.69;4882982;29;19957;-75
2022/04/07 09:13:18;;;;;;;;;;;;;;;10.76;64.71;94521.84;4889889;29;20333;-75
2022/04/07 09:16:07;;;;;;;;;;;;;;;10.83;64.11;94518.16;4905668;29;19966;-75
2022/04/07 09:18:35;;;;;;;;;;;;;;;10.92;65.48;94542.78;4875336;29;19958;-77
2022/04/07 09:21:01;;;;;;;;;;;;;;;10.89;64.44;94515.25;4898305;29;19966;-75
2022/04/07 09:23:38;;;;;;;;;;;;;;;10.89;64.42;94532.81;4891939;29;19956;-74
2022/04/07 09:26:03;;;;;;;;;;;;;;;10.92;65.30;94530.47;4886233;29;19970;-74
2022/04/07 09:28:30;;;;;;;;;;;;;;;10.96;65.54;94528.88;4893971;29;20500;-73
2022/04/07 09:30:57;;;;;;;;;;;;;;;10.96;66.12;94538.56;4897622;29;19956;-74
2022/04/07 09:33:24;;;;;;;;;;;;;;;11.02;65.51;94531.47;4891531;29;20025;-74
2022/04/07 09:36:07;;;;;;;;;;;;;;;11.09;65.86;94529.38;4890297;29;20377;-75
2022/04/07 09:38:34;;;;;;;;;;;;;;;11.16;65.96;94514.91;4881936;29;19962;-75
2022/04/07 09:41:04;;;;;;;;;;;;;;;11.16;65.05;94525.38;4896763;29;19968;-75
2022/04/07 09:43:31;;;;;;;;;;;;;;;11.13;65.25;94515.44;4882287;29;19963;-74
2022/04/07 09:45:56;;;;;;;;;;;;;;;11.21;67.92;94532.44;4898029;29;19979;-75
2022/04/07 09:48:24;;;;;;;;;;;;;;;11.33;68.45;94537.41;4887843;29;20038;-75
2022/04/07 09:51:08;;;;;;;;;;;;;;;11.40;67.68;94524.75;4881651;29;19963;-74
2022/04/07 09:53:36;;;;;;;;;;;;;;;11.49;65.75;94502.16;4889684;29;19962;-74
2022/04/07 09:56:02;;;;;;;;;;;;;;;11.63;65.67;94514.66;4900497;29;20412;-74
2022/04/07 09:58:28;;;;;;;;;;;;;;;11.59;65.47;94501.31;4882962;29;19958;-74
2022/04/07 10:00:56;;;;;;;;;;;;;;;11.50;65.49;94498.47;4900094;29;19968;-75
2022/04/07 10:03:22;;;;;;;;;;;;;;;11.43;64.90;94487.50;4888012;29;19965;-75
2022/04/07 10:05:48;;;;;;;;;;;;;;;11.45;65.09;94472.25;4881924;29;20354;-74
2022/04/07 10:08:18;;;;;;;;;;;;;;;11.42;64.98;94472.78;4881613;29;19961;-74
2022/04/07 10:10:45;;;;;;;;;;;;;;;11.48;65.17;94465.69;4873675;29;19975;-74
2022/04/07 10:13:11;;;;;;;;;;;;;;;11.50;65.61;94459.09;4874235;29;19959;-73
2022/04/07 10:15:37;;;;;;;;;;;;;;;11.63;64.21;94433.28;4892214;29;19958;-75
2022/04/07 10:18:05;;;;;;;;;;;;;;;11.57;64.43;94435.97;4894497;29;20343;-78
2022/04/07 10:20:33;;;;;;;;;;;;;;;11.52;64.55;94435.19;4892157;29;20001;-74
2022/04/07 10:23:35;;;;;;;;;;;;;;;11.45;64.52;94446.00;4893746;29;19963;-75
2022/04/07 10:26:02;;;;;;;;;;;;;;;11.42;63.93;94428.16;4797028;29;19994;-75
2022/04/07 10:28:28;;;;;;;;;;;;;;;11.47;64.85;94432.63;4867086;29;20036;-77
2022/04/07 10:30:54;;;;;;;;;;;;;;;11.60;64.86;94424.13;4893502;29;19955;-74
2022/04/07 10:33:39;;;;;;;;;;;;;;;11.78;64.57;94412.97;4891432;29;20343;-74
2022/04/07 10:36:34;;;;;;;;;;;;;;;11.80;63.87;94431.09;4884789;29;19988;-74
2022/04/07 10:39:00;;;;;;;;;;;;;;;11.76;62.63;94394.06;4876796;29;19963;-75
2022/04/07 10:41:46;;;;;;;;;;;;;;;11.81;63.11;94379.34;4889473;29;20467;-75
2022/04/07 10:44:16;;;;;;;;;;;;;;;11.78;62.60;94367.56;4888314;29;19957;-74
2022/04/07 10:46:43;;;;;;;;;;;;;;;11.73;62.59;94378.84;4882865;29;20427;-74
2022/04/07 10:49:10;;;;;;;;;;;;;;;11.93;63.73;94396.31;4881191;29;20402;-74
2022/04/07 10:51:45;;;;;;;;;;;;;;;12.10;62.77;94371.50;4884968;29;19959;-74
2022/04/07 10:54:12;;;;;;;;;;;;;;;12.25;61.74;94344.28;4889324;29;19960;-74
2022/04/07 10:56:41;;;;;;;;;;;;;;;12.38;60.70;94325.97;4893447;29;20344;-74
2022/04/07 10:59:21;;;;;;;;;;;;;;;12.45;60.52;94332.72;4889542;29;19984;-75
2022/04/07 11:01:52;;;;;;;;;;;;;;;12.45;59.39;94307.25;4885775;29;19958;-74
2022/04/07 11:07:13;;;;;;;;;;;;;;;12.43;59.98;94312.00;4890565;29;19983;-74
2022/04/07 11:09:48;;;;;;;;;;;;;;;12.49;59.66;94292.44;4898418;29;20373;-74
2022/04/07 11:12:20;;;;;;;;;;;;;;;12.50;59.82;94295.88;4884857;29;20372;-76
2022/04/07 11:14:46;;;;;;;;;;;;;;;12.48;60.31;94296.16;4890426;29;19966;-74
2022/04/07 11:17:22;;;;;;;;;;;;;;;12.49;59.37;94312.69;4898697;29;19966;-74
2022/04/07 11:19:51;;;;;;;;;;;;;;;12.44;59.97;94312.78;4891750;29;19971;-74
2022/04/07 11:22:19;;;;;;;;;;;;;;;12.49;60.71;94292.44;4889097;29;19960;-74
2022/04/07 11:24:45;;;;;;;;;;;;;;;12.59;60.61;94312.56;4880302;29;19984;-73
2022/04/07 11:27:31;;;;;;;;;;;;;;;12.80;60.36;94305.97;4874357;29;20719;-73
2022/04/07 11:30:04;;;;;;;;;;;;;;;13.16;60.64;94308.09;4880476;29;19961;-74
2022/04/07 11:33:13;;;;;;;;;;;;;;;13.33;59.98;94296.28;4858897;29;19976;-73
2022/04/07 11:35:39;;;;;;;;;;;;;;;13.34;59.78;94290.75;4880327;29;20417;-74
2022/04/07 11:38:05;;;;;;;;;;;;;;;13.26;60.29;94303.75;4890529;29;20052;-74
2022/04/07 11:40:31;;;;;;;;;;;;;;;13.24;60.43;94295.38;4891679;29;19962;-74
2022/04/07 11:42:58;;;;;;;;;;;;;;;13.26;59.90;94285.34;4880007;29;19987;-74
2022/04/07 11:45:32;;;;;;;;;;;;;;;13.21;59.86;94296.72;4896272;29;19967;-74
2022/04/07 11:47:58;;;;;;;;;;;;;;;13.21;59.82;94296.72;4881789;29;19983;-74
2022/04/07 11:50:42;;;;;;;;;;;;;;;13.15;59.21;94293.38;4896869;29;19963;-74
2022/04/07 11:53:08;;;;;;;;;;;;;;;13.02;59.07;94286.22;4880289;29;19964;-74
2022/04/07 11:55:34;;;;;;;;;;;;;;;12.85;59.89;94301.72;4897155;29;19957;-74
2022/04/07 11:58:00;;;;;;;;;;;;;;;12.79;60.35;94291.28;4869188;29;19972;-74
2022/04/07 12:00:32;;;;;;;;;;;;;;;12.64;61.07;94298.56;4889288;29;20399;-74
2022/04/07 12:02:59;;;;;;;;;;;;;;;12.55;62.22;94337.88;4893136;29;19964;-73
2022/04/07 12:05:25;;;;;;;;;;;;;;;12.41;62.57;94318.59;4898182;29;19994;-74
2022/04/07 12:07:51;;;;;;;;;;;;;;;12.30;62.63;94315.28;4885730;29;20359;-75
2022/04/07 12:10:17;;;;;;;;;;;;;;;12.27;63.69;94321.13;4887165;29;20419;-73
2022/04/07 12:12:43;;;;;;;;;;;;;;;12.21;63.11;94306.47;4879995;29;19968;-74
2022/04/07 12:15:10;;;;;;;;;;;;;;;12.17;62.87;94307.03;4898314;29;19963;-74
2022/04/07 12:18:01;;;;;;;;;;;;;;;12.19;63.18;94299.63;4885715;29;19956;-74
2022/04/07 12:20:27;;;;;;;;;;;;;;;12.18;63.70;94318.34;4885917;29;20414;-74
2022/04/07 12:23:09;;;;;;;;;;;;;;;12.22;63.41;94302.78;4881465;29;19965;-74
2022/04/07 12:25:36;;;;;;;;;;;;;;;12.31;63.58;94291.38;4880685;29;20406;-74
2022/04/07 12:28:20;;;;;;;;;;;;;;;12.51;63.28;94303.47;4888468;29;19973;-73
2022/04/07 12:30:46;;;;;;;;;;;;;;;12.62;61.97;94274.41;4897076;29;20345;-74
2022/04/07 12:33:31;;;;;;;;;;;;;;;12.76;62.08;94275.28;4898269;29;20004;-74
2022/04/07 12:35:57;;;;;;;;;;;;;;;12.77;62.01;94234.78;4886889;29;19962;-74
2022/04/07 12:38:23;;;;;;;;;;;;;;;12.67;61.95;94269.88;4884263;29;20471;-74
2022/04/07 12:40:49;;;;;;;;;;;;;;;12.75;62.64;94294.75;4896706;29;20428;-75
2022/04/07 12:43:15;;;;;;;;;;;;;;;12.69;62.89;94280.13;4898472;29;19969;-74
2022/04/07 12:45:57;;;;;;;;;;;;;;;12.68;63.59;94258.31;4900918;29;19961;-75
2022/04/07 12:48:23;;;;;;;;;;;;;;;12.78;61.95;94247.63;4893742;29;19968;-73
2022/04/07 12:50:49;;;;;;;;;;;;;;;12.69;61.70;94230.94;4883270;29;20415;-73
2022/04/07 12:53:31;;;;;;;;;;;;;;;12.59;61.55;94241.59;4883523;29;20336;-75
2022/04/07 12:56:02;;;;;;;;;;;;;;;12.62;62.14;94258.63;4888707;29;19957;-74
2022/04/07 12:58:28;;;;;;;;;;;;;;;12.74;62.74;94251.88;4891362;29;19966;-74
2022/04/07 13:01:01;;;;;;;;;;;;;;;12.80;62.08;94229.72;4896379;29;20325;-73